Muncy Valley, Pennsylvania
Current Conditions -  °F | °C
As of 5:54 PM on Thursday 18 Dec 2014 (Local Time) from KIPT Reporting Station
Overcast Overcast  
Wind Chill: 28°   Ceiling: 2900
Heat Index: 35°   Visibility: 10mi
Dew Point: 26°   Wind: 9mph
Humidity: 70%   Direction: 260°W
Pressure: 30.05"   Gusts: NA
Location:  41.34°N, 76.59°W
Report Text: KIPT 182254Z 26008KT 10SM OVC029 02/M03 A3005 RMK AO2 SLP181 T00171033
Loading
Personal Weather Stations






























Interactive Weather Map New forecast layout! Learn more

10-Day Weather Forecast

Advertisements
Track Severe Weather on mobile